AFR579 GUCY-LFPG
Flight info
| Callsign | AFR579 |
|---|---|
| Flight time | N/A |
| Altitude | 39000 |
| Route | DIRNO1D DIRNO UR72 BUMBI UM372 TAMUL/N0480F410 UM372 BULIS/N0479F400 DCT MABAP UR722 SAK UG5 KORIS DCT SVL DCT HIJ DCT RUSEM DCT SOTUK DCT USOKO DCT TLD DCT SIE DCT EDIGO DCT DGO DCT ABRIX DCT CNA DCT POI/N0465F300 DCT PEPAX UT182 KEPER |
| Aircraft | A359/H-SABDE2E3GHIJ1J2J3J4J5M1P2RWXYZ/LB1D1 |
Departure
| Time | 2026-05-04 12:00 |
|---|---|
| Airport | Ahmed Sékou Touré International Airport (GUCY) |
Arrival
| Time | N/A |
|---|---|
| Airport | Charles de Gaulle International Airport (LFPG) |
| Time | Latitude | Longitude | Altitude | Speed | Heading |
|---|---|---|---|---|---|
| 2026-05-04 11:43 | 9.57426 | -13.61968 | 90 ft | 0 kts | 318° |
| 2026-05-04 11:50 | 9.57424 | -13.61966 | 92 ft | 3 kts | 318° |
| 2026-05-04 11:50 | 9.57409 | -13.61953 | 93 ft | 3 kts | 318° |
| 2026-05-04 11:50 | 9.57394 | -13.61939 | 90 ft | 3 kts | 318° |
| 2026-05-04 11:50 | 9.57379 | -13.61925 | 90 ft | 3 kts | 318° |
| 2026-05-04 11:51 | 9.57362 | -13.61912 | 89 ft | 3 kts | 347° |
| 2026-05-04 11:51 | 9.57344 | -13.61908 | 87 ft | 3 kts | 347° |
| 2026-05-04 11:51 | 9.57323 | -13.61908 | 86 ft | 3 kts | 28° |
| 2026-05-04 11:51 | 9.57309 | -13.61919 | 88 ft | 2 kts | 47° |
| 2026-05-04 11:52 | 9.57303 | -13.61925 | 88 ft | 0 kts | 47° |
| 2026-05-04 11:55 | 9.57655 | -13.61516 | 84 ft | 25 kts | 50° |
| 2026-05-04 11:55 | 9.57772 | -13.61378 | 65 ft | 25 kts | 50° |
| 2026-05-04 11:56 | 9.57835 | -13.61253 | 70 ft | 19 kts | 92° |
| 2026-05-04 11:56 | 9.57823 | -13.61112 | 72 ft | 21 kts | 95° |
| 2026-05-04 11:56 | 9.57872 | -13.60978 | 60 ft | 22 kts | 49° |
| 2026-05-04 11:56 | 9.57972 | -13.60859 | 62 ft | 22 kts | 49° |
| 2026-05-04 11:57 | 9.58075 | -13.60740 | 63 ft | 23 kts | 49° |
| 2026-05-04 11:57 | 9.58185 | -13.60611 | 63 ft | 25 kts | 49° |
| 2026-05-04 11:57 | 9.58306 | -13.60468 | 60 ft | 29 kts | 49° |
| 2026-05-04 11:57 | 9.58445 | -13.60305 | 60 ft | 31 kts | 49° |
| 2026-05-04 11:58 | 9.58580 | -13.60147 | 59 ft | 22 kts | 48° |
| 2026-05-04 11:58 | 9.58650 | -13.60104 | 57 ft | 4 kts | 49° |
| 2026-05-04 11:58 | 9.58649 | -13.60088 | 57 ft | 1 kts | 111° |
| 2026-05-04 11:58 | 9.58645 | -13.60086 | 58 ft | 1 kts | 137° |
| 2026-05-04 11:59 | 9.58630 | -13.60090 | 61 ft | 4 kts | 201° |
| 2026-05-04 11:59 | 9.58606 | -13.60117 | 55 ft | 0 kts | 229° |
| 2026-05-04 11:59 | 9.58531 | -13.60204 | 57 ft | 45 kts | 229° |
| 2026-05-04 12:00 | 9.58173 | -13.60626 | 62 ft | 110 kts | 229° |
| 2026-05-04 12:00 | 9.57545 | -13.61362 | 86 ft | 164 kts | 230° |
| 2026-05-04 12:00 | 9.57033 | -13.61941 | 486 ft | 164 kts | 227° |
| 2026-05-04 12:00 | 9.56291 | -13.62778 | 1277 ft | 159 kts | 229° |
| 2026-05-04 12:01 | 9.55572 | -13.63644 | 1916 ft | 163 kts | 230° |
| 2026-05-04 12:01 | 9.54841 | -13.64530 | 2436 ft | 165 kts | 229° |
| 2026-05-04 12:02 | 9.56564 | -13.69963 | 4411 ft | 260 kts | 357° |
| 2026-05-04 12:03 | 9.58393 | -13.70143 | 5002 ft | 268 kts | 355° |
| 2026-05-04 12:03 | 9.60271 | -13.70382 | 5614 ft | 275 kts | 354° |
| 2026-05-04 12:03 | 9.62177 | -13.70664 | 6316 ft | 279 kts | 354° |
| 2026-05-04 12:03 | 9.64106 | -13.70970 | 6951 ft | 284 kts | 354° |
| 2026-05-04 12:04 | 9.66072 | -13.71292 | 7602 ft | 288 kts | 354° |
| 2026-05-04 12:04 | 9.68061 | -13.71626 | 8314 ft | 291 kts | 355° |
| 2026-05-04 12:04 | 9.70074 | -13.71966 | 9020 ft | 295 kts | 356° |
| 2026-05-04 12:04 | 9.72111 | -13.72227 | 9720 ft | 295 kts | 5° |
| 2026-05-04 12:05 | 9.74108 | -13.71932 | 10293 ft | 291 kts | 25° |
| 2026-05-04 12:05 | 9.75856 | -13.70888 | 10601 ft | 297 kts | 47° |
| 2026-05-04 12:05 | 9.77287 | -13.69327 | 10905 ft | 310 kts | 53° |
| 2026-05-04 12:05 | 9.78702 | -13.67613 | 11189 ft | 325 kts | 53° |
| 2026-05-04 12:06 | 9.80179 | -13.65832 | 11649 ft | 334 kts | 53° |
| 2026-05-04 12:06 | 9.81692 | -13.64026 | 12198 ft | 338 kts | 53° |
| 2026-05-04 12:06 | 9.83231 | -13.62200 | 12810 ft | 342 kts | 52° |
| 2026-05-04 12:06 | 9.84781 | -13.60363 | 13440 ft | 345 kts | 52° |
| 2026-05-04 12:07 | 9.86350 | -13.58511 | 14026 ft | 348 kts | 52° |
| 2026-05-04 12:07 | 9.87938 | -13.56632 | 14459 ft | 354 kts | 52° |
| 2026-05-04 12:07 | 9.89554 | -13.54717 | 14924 ft | 360 kts | 52° |
| 2026-05-04 12:07 | 9.91193 | -13.52777 | 15385 ft | 365 kts | 52° |
| 2026-05-04 12:08 | 9.92836 | -13.50832 | 15817 ft | 371 kts | 52° |
| 2026-05-04 12:08 | 9.94529 | -13.48830 | 16270 ft | 376 kts | 52° |
| 2026-05-04 12:08 | 9.96283 | -13.46785 | 16748 ft | 382 kts | 50° |
| 2026-05-04 12:08 | 9.98224 | -13.44966 | 17175 ft | 390 kts | 40° |
| 2026-05-04 12:09 | 10.00564 | -13.43526 | 17613 ft | 399 kts | 27° |
| 2026-05-04 12:09 | 10.03219 | -13.42611 | 18057 ft | 408 kts | 14° |
| 2026-05-04 12:09 | 10.06033 | -13.42105 | 18474 ft | 413 kts | 11° |
| 2026-05-04 12:09 | 10.08888 | -13.41675 | 18907 ft | 416 kts | 10° |
| 2026-05-04 12:10 | 10.11754 | -13.41243 | 19370 ft | 418 kts | 10° |
| 2026-05-04 12:10 | 10.14644 | -13.40800 | 19823 ft | 421 kts | 10° |
| 2026-05-04 12:10 | 10.17553 | -13.40349 | 20281 ft | 424 kts | 10° |
| 2026-05-04 12:10 | 10.20482 | -13.39893 | 20737 ft | 427 kts | 10° |
| 2026-05-04 12:11 | 10.23432 | -13.39431 | 21177 ft | 430 kts | 10° |
| 2026-05-04 12:11 | 10.26398 | -13.38967 | 21642 ft | 433 kts | 10° |
| 2026-05-04 12:11 | 10.29389 | -13.38498 | 22081 ft | 436 kts | 9° |
| 2026-05-04 12:11 | 10.32399 | -13.38026 | 22529 ft | 439 kts | 9° |
| 2026-05-04 12:12 | 10.35428 | -13.37551 | 22961 ft | 442 kts | 9° |
| 2026-05-04 12:12 | 10.38472 | -13.37073 | 23387 ft | 445 kts | 9° |
| 2026-05-04 12:12 | 10.41543 | -13.36591 | 23743 ft | 448 kts | 9° |
| 2026-05-04 12:12 | 10.44635 | -13.36105 | 24101 ft | 450 kts | 9° |
| 2026-05-04 12:13 | 10.47741 | -13.35617 | 24467 ft | 453 kts | 8° |
| 2026-05-04 12:14 | 10.69910 | -13.32131 | 27458 ft | 470 kts | 8° |
| 2026-05-04 12:15 | 10.73195 | -13.31614 | 27899 ft | 473 kts | 7° |
| 2026-05-04 12:15 | 10.76418 | -13.31107 | 28323 ft | 476 kts | 7° |
| 2026-05-04 12:15 | 10.79744 | -13.30583 | 28726 ft | 479 kts | 7° |
| 2026-05-04 12:15 | 10.83005 | -13.30069 | 29130 ft | 482 kts | 7° |
| 2026-05-04 12:16 | 10.86327 | -13.29546 | 29529 ft | 485 kts | 7° |
| 2026-05-04 12:16 | 10.89670 | -13.29020 | 29910 ft | 488 kts | 7° |
| 2026-05-04 12:16 | 10.93032 | -13.28490 | 30266 ft | 490 kts | 7° |
| 2026-05-04 12:16 | 10.96410 | -13.27957 | 30588 ft | 493 kts | 7° |
| 2026-05-04 12:17 | 10.99806 | -13.27421 | 30907 ft | 495 kts | 7° |
| 2026-05-04 12:17 | 11.03218 | -13.26883 | 31209 ft | 497 kts | 6° |
| 2026-05-04 12:17 | 11.06644 | -13.26343 | 31512 ft | 500 kts | 6° |
| 2026-05-04 12:17 | 11.10091 | -13.25799 | 31826 ft | 502 kts | 6° |
| 2026-05-04 12:18 | 11.13542 | -13.25254 | 32111 ft | 504 kts | 6° |
| 2026-05-04 12:18 | 11.17015 | -13.24706 | 32391 ft | 506 kts | 6° |
| 2026-05-04 12:18 | 11.20494 | -13.24157 | 32668 ft | 507 kts | 6° |
| 2026-05-04 12:18 | 11.23993 | -13.23604 | 32942 ft | 509 kts | 6° |
| 2026-05-04 12:19 | 11.27504 | -13.23050 | 33209 ft | 511 kts | 6° |
| 2026-05-04 12:19 | 11.31018 | -13.22494 | 33487 ft | 512 kts | 6° |
| 2026-05-04 12:19 | 11.34539 | -13.21937 | 33854 ft | 511 kts | 6° |
| 2026-05-04 12:19 | 11.38052 | -13.21381 | 34193 ft | 510 kts | 5° |
| 2026-05-04 12:20 | 11.41559 | -13.20826 | 34489 ft | 510 kts | 5° |
| 2026-05-04 12:20 | 11.43879 | -13.20459 | 34657 ft | 510 kts | 5° |